Time;durP1;ratioP1;P1;durP2;ratioP2;P2;SDS_P1;SDS_P2;PMS_P1;PMS_P2;Temp;Humidity;BMP_temperature;BMP_pressure;BME280_temperature;BME280_humidity;BME280_pressure;Samples;Min_cycle;Max_cycle;Signal;HPM_P1;HPM_P2
2022/05/08 00:02:18;;;;;;;12.33;9.80;;;12.30;99.90;;;;;;5055794;28;20538;-41
2022/05/08 00:04:45;;;;;;;12.03;9.60;;;12.30;99.90;;;;;;5054781;28;20184;-46
2022/05/08 00:07:11;;;;;;;10.87;9.03;;;12.20;99.90;;;;;;5055514;28;20200;-44
2022/05/08 00:09:37;;;;;;;13.97;9.87;;;12.20;99.90;;;;;;5055067;28;20659;-45
2022/05/08 00:12:03;;;;;;;14.83;10.97;;;12.10;99.90;;;;;;5054366;28;20181;-46
2022/05/08 00:14:28;;;;;;;12.03;9.60;;;12.10;99.90;;;;;;5053021;28;20632;-40
2022/05/08 00:16:54;;;;;;;13.13;10.30;;;12.10;99.90;;;;;;5052771;28;20204;-40
2022/05/08 00:19:19;;;;;;;12.10;9.90;;;12.10;99.90;;;;;;5053033;28;20546;-39
2022/05/08 00:21:45;;;;;;;12.57;8.77;;;12.00;99.90;;;;;;5053103;28;20628;-41
2022/05/08 00:24:10;;;;;;;12.00;9.33;;;12.00;99.90;;;;;;5051383;28;20188;-43
2022/05/08 00:26:36;;;;;;;12.10;9.90;;;11.90;99.90;;;;;;5052737;28;20188;-42
2022/05/08 00:29:02;;;;;;;14.77;10.53;;;11.90;99.90;;;;;;5054314;28;20187;-40
2022/05/08 00:31:29;;;;;;;13.67;10.50;;;11.90;99.90;;;;;;5056427;28;20181;-42
2022/05/08 00:33:54;;;;;;;13.40;11.50;;;11.90;99.90;;;;;;5057686;28;20208;-42
2022/05/08 00:36:20;;;;;;;13.37;11.03;;;11.90;99.90;;;;;;5057453;28;20176;-41
2022/05/08 00:38:46;;;;;;;15.77;12.00;;;11.90;99.90;;;;;;5056090;28;20224;-42
2022/05/08 00:41:11;;;;;;;15.20;11.60;;;11.90;99.90;;;;;;5056184;28;20233;-42
2022/05/08 00:43:39;;;;;;;14.63;11.17;;;11.90;99.90;;;;;;5056439;28;20267;-42
2022/05/08 00:46:08;;;;;;;15.97;11.80;;;11.80;99.90;;;;;;5056546;28;20287;-42
2022/05/08 00:48:34;;;;;;;15.63;12.37;;;11.90;99.90;;;;;;5055941;28;20683;-40
2022/05/08 00:51:02;;;;;;;16.83;13.30;;;11.80;99.90;;;;;;5056188;28;20258;-42
2022/05/08 00:53:33;;;;;;;17.73;13.97;;;11.90;99.90;;;;;;5054538;28;20234;-42
2022/05/08 00:56:00;;;;;;;15.43;12.63;;;11.90;99.90;;;;;;5055989;28;20157;-42
2022/05/08 00:58:26;;;;;;;18.90;13.77;;;11.90;99.90;;;;;;5055940;28;20220;-43
2022/05/08 01:00:51;;;;;;;19.43;14.03;;;11.90;99.90;;;;;;5055992;28;20644;-40
2022/05/08 01:03:17;;;;;;;16.20;12.67;;;11.90;99.90;;;;;;5056114;28;20176;-39
2022/05/08 01:05:44;;;;;;;18.70;14.53;;;11.80;99.90;;;;;;5056122;28;20651;-42
2022/05/08 01:08:10;;;;;;;18.97;14.57;;;11.80;99.90;;;;;;5056123;28;20196;-42
2022/05/08 01:10:37;;;;;;;22.33;14.27;;;11.80;99.90;;;;;;5055714;28;20667;-39
2022/05/08 01:13:04;;;;;;;24.43;15.57;;;11.90;99.90;;;;;;5055547;28;20543;-42
2022/05/08 01:15:47;;;;;;;18.93;14.43;;;11.90;99.90;;;;;;5055691;28;20175;-40
2022/05/08 01:18:15;;;;;;;22.37;15.80;;;11.90;99.90;;;;;;5056243;28;20196;-41
2022/05/08 01:20:42;;;;;;;19.13;15.40;;;12.00;99.90;;;;;;5056356;28;20172;-40
2022/05/08 01:23:09;;;;;;;24.43;15.90;;;12.10;99.90;;;;;;5056874;28;20196;-40
2022/05/08 01:25:43;;;;;;;21.10;15.20;;;12.10;99.90;;;;;;5056295;28;20230;-42
2022/05/08 01:28:09;;;;;;;18.87;14.93;;;12.10;99.90;;;;;;5055097;28;20255;-42
2022/05/08 01:30:35;;;;;;;19.13;14.00;;;12.20;99.90;;;;;;5055680;28;20584;-40
2022/05/08 01:33:01;;;;;;;18.97;14.67;;;12.20;99.90;;;;;;5055425;28;20239;-41
2022/05/08 01:35:29;;;;;;;18.83;15.33;;;12.30;99.90;;;;;;5055442;28;20533;-40
2022/05/08 01:37:55;;;;;;;21.27;15.23;;;12.30;99.90;;;;;;5054950;28;20220;-42
2022/05/08 01:40:20;;;;;;;22.63;16.33;;;12.30;99.90;;;;;;5055479;28;20168;-39
2022/05/08 01:42:46;;;;;;;21.57;17.03;;;12.40;99.90;;;;;;5054647;28;20173;-39
2022/05/08 01:45:12;;;;;;;23.60;17.00;;;12.40;99.90;;;;;;5055214;28;20615;-38
2022/05/08 01:50:23;;;;;;;22.37;16.27;;;12.50;99.90;;;;;;5054964;28;20206;-41
2022/05/08 01:52:49;;;;;;;22.33;16.37;;;12.40;99.90;;;;;;5054724;28;20242;-40
2022/05/08 01:55:15;;;;;;;21.93;15.67;;;12.40;99.90;;;;;;5055043;28;20523;-42
2022/05/08 01:57:41;;;;;;;18.20;14.97;;;12.40;99.90;;;;;;5054597;28;20209;-39
2022/05/08 02:00:07;;;;;;;20.80;14.90;;;12.50;99.90;;;;;;5054825;28;20274;-39
2022/05/08 02:02:33;;;;;;;22.00;15.50;;;12.50;99.90;;;;;;5054895;28;20187;-40
2022/05/08 02:05:00;;;;;;;17.33;13.80;;;12.50;99.90;;;;;;5054696;28;20721;-41
2022/05/08 02:07:25;;;;;;;16.73;12.53;;;12.60;99.90;;;;;;5054416;28;20687;-40
2022/05/08 02:09:51;;;;;;;17.47;12.53;;;12.50;99.90;;;;;;5054978;28;20183;-41
2022/05/08 02:12:17;;;;;;;16.43;11.27;;;12.50;99.90;;;;;;5054928;28;20184;-42
2022/05/08 02:14:43;;;;;;;16.27;11.43;;;12.50;99.90;;;;;;5053235;28;20183;-40
2022/05/08 02:17:10;;;;;;;14.90;9.97;;;12.50;99.90;;;;;;5054281;28;20199;-41
2022/05/08 02:19:35;;;;;;;13.43;8.97;;;12.50;99.90;;;;;;5054611;28;20184;-40
2022/05/08 02:22:01;;;;;;;12.87;8.53;;;12.60;99.90;;;;;;5054988;28;20174;-40
2022/05/08 02:24:27;;;;;;;13.60;8.23;;;12.60;99.90;;;;;;5054147;28;20278;-41
2022/05/08 02:26:52;;;;;;;9.90;6.97;;;12.50;99.90;;;;;;5054035;28;20211;-38
2022/05/08 02:29:18;;;;;;;8.67;6.47;;;12.50;99.90;;;;;;5054160;28;20184;-40
2022/05/08 02:31:44;;;;;;;7.57;5.97;;;12.50;99.90;;;;;;5054420;28;20168;-39
2022/05/08 02:34:10;;;;;;;9.97;5.30;;;12.50;99.90;;;;;;5054102;28;20196;-41
2022/05/08 02:36:35;;;;;;;8.77;5.20;;;12.50;99.90;;;;;;5054534;28;20635;-41
2022/05/08 02:39:01;;;;;;;7.43;4.83;;;12.50;99.90;;;;;;5054143;28;20191;-41
2022/05/08 02:41:27;;;;;;;6.10;4.57;;;12.50;99.90;;;;;;5054120;28;20264;-40
2022/05/08 02:43:52;;;;;;;8.53;4.57;;;12.40;99.90;;;;;;5054010;28;20546;-40
2022/05/08 02:46:18;;;;;;;9.03;4.77;;;12.40;99.90;;;;;;5053982;28;20306;-39
2022/05/08 02:48:43;;;;;;;5.60;4.40;;;12.40;99.90;;;;;;5053762;28;20262;-41
2022/05/08 02:51:09;;;;;;;8.50;4.67;;;12.40;99.90;;;;;;5053702;28;20184;-42
2022/05/08 02:53:34;;;;;;;8.00;4.60;;;12.40;99.90;;;;;;5053096;28;20212;-42
2022/05/08 02:58:44;;;;;;;9.33;4.50;;;12.30;99.90;;;;;;5053932;28;20167;-41
2022/05/08 03:01:10;;;;;;;8.97;4.97;;;12.30;99.90;;;;;;5053458;28;20180;-42
2022/05/08 03:03:36;;;;;;;9.23;4.93;;;12.30;99.90;;;;;;5053585;28;20179;-39
2022/05/08 03:06:02;;;;;;;9.20;4.90;;;12.30;99.90;;;;;;5053423;28;20241;-39
2022/05/08 03:08:27;;;;;;;10.07;4.50;;;12.30;99.90;;;;;;5052160;28;20273;-39
2022/05/08 03:13:39;;;;;;;8.70;4.80;;;12.20;99.90;;;;;;5053492;28;20729;-40
2022/05/08 03:16:06;;;;;;;7.37;4.47;;;12.20;99.90;;;;;;5053332;28;20178;-39
2022/05/08 03:18:33;;;;;;;9.70;4.70;;;12.20;99.90;;;;;;5053560;28;20204;-41
2022/05/08 03:20:58;;;;;;;7.23;4.50;;;12.20;99.90;;;;;;5055948;28;20656;-44
2022/05/08 03:23:24;;;;;;;6.53;4.40;;;12.20;99.90;;;;;;5058072;28;20186;-45
2022/05/08 03:25:50;;;;;;;7.97;4.90;;;12.20;99.90;;;;;;5057747;28;20707;-46
2022/05/08 03:28:16;;;;;;;6.87;4.70;;;12.20;99.90;;;;;;5058290;28;20199;-44
2022/05/08 03:30:42;;;;;;;8.97;4.67;;;12.20;99.90;;;;;;5057465;28;20216;-42
2022/05/08 03:33:09;;;;;;;9.17;4.87;;;12.20;99.90;;;;;;5057232;28;20240;-45
2022/05/08 03:35:36;;;;;;;7.63;5.33;;;12.20;99.90;;;;;;5056957;28;20183;-44
2022/05/08 03:38:01;;;;;;;11.83;4.80;;;12.10;99.90;;;;;;5056982;28;20271;-44
2022/05/08 03:40:27;;;;;;;11.90;4.83;;;12.10;99.90;;;;;;5056135;28;20210;-45
2022/05/08 03:42:53;;;;;;;7.67;4.37;;;12.10;99.90;;;;;;5057835;28;20191;-44
2022/05/08 03:45:19;;;;;;;7.73;4.67;;;12.10;99.90;;;;;;5057652;28;20183;-43
2022/05/08 03:47:44;;;;;;;10.20;4.73;;;12.10;99.90;;;;;;5058234;28;20203;-44
2022/05/08 03:50:10;;;;;;;6.57;4.30;;;12.00;99.90;;;;;;5057073;28;20237;-44
2022/05/08 03:52:36;;;;;;;7.27;4.30;;;12.00;99.90;;;;;;5056229;28;20700;-45
2022/05/08 03:55:03;;;;;;;6.50;4.50;;;12.00;99.90;;;;;;5056652;28;20187;-44
2022/05/08 03:57:29;;;;;;;10.63;4.93;;;12.00;99.90;;;;;;5057934;28;20199;-44
2022/05/08 03:59:54;;;;;;;8.67;5.10;;;12.00;99.90;;;;;;5056981;28;20182;-45
2022/05/08 04:02:20;;;;;;;8.50;5.50;;;13.10;99.90;;;;;;5056889;28;20187;-45
2022/05/08 04:04:45;;;;;;;10.10;5.87;;;11.90;99.90;;;;;;5058705;28;20188;-45
2022/05/08 04:07:12;;;;;;;10.57;5.47;;;11.90;99.90;;;;;;5060773;28;20200;-45
2022/05/08 04:09:38;;;;;;;10.67;5.57;;;11.90;99.90;;;;;;5061928;28;20180;-43
2022/05/08 04:12:04;;;;;;;8.07;5.37;;;11.90;99.90;;;;;;5062061;28;20185;-45
2022/05/08 04:14:29;;;;;;;8.17;5.23;;;11.90;99.90;;;;;;5062252;28;20203;-45
2022/05/08 04:16:55;;;;;;;10.63;6.07;;;11.80;99.90;;;;;;5062089;28;20199;-44
2022/05/08 04:19:20;;;;;;;7.80;5.10;;;11.80;99.90;;;;;;5063515;28;20180;-45
2022/05/08 04:21:46;;;;;;;10.60;5.20;;;11.80;99.90;;;;;;5063489;28;20263;-44
2022/05/08 04:24:18;;;;;;;7.67;5.37;;;11.80;99.90;;;;;;5064389;28;20191;-45
2022/05/08 04:26:44;;;;;;;8.67;5.53;;;11.70;99.90;;;;;;5059133;28;20661;-40
2022/05/08 04:29:09;;;;;;;10.23;6.33;;;11.70;99.90;;;;;;5056647;28;20201;-41
2022/05/08 04:31:35;;;;;;;7.90;5.50;;;11.70;99.90;;;;;;5056935;28;20183;-41
2022/05/08 04:34:01;;;;;;;9.70;5.83;;;11.70;99.90;;;;;;5056808;28;20303;-41
2022/05/08 04:36:27;;;;;;;10.07;6.20;;;11.60;99.90;;;;;;5056510;28;20219;-41
2022/05/08 04:38:53;;;;;;;6.67;4.93;;;11.60;99.90;;;;;;5056402;28;20199;-41
2022/05/08 04:41:19;;;;;;;7.53;4.97;;;11.60;99.90;;;;;;5056507;28;20233;-42
2022/05/08 04:43:44;;;;;;;7.43;4.87;;;11.60;99.90;;;;;;5055228;28;20195;-40
2022/05/08 04:46:13;;;;;;;9.00;5.80;;;11.60;99.90;;;;;;5056720;28;20182;-42
2022/05/08 04:48:41;;;;;;;10.00;5.30;;;11.60;99.90;;;;;;5056604;28;20207;-39
2022/05/08 04:51:07;;;;;;;8.33;5.77;;;11.60;99.90;;;;;;5056069;28;20175;-38
2022/05/08 04:53:33;;;;;;;8.33;5.70;;;11.70;99.90;;;;;;5055954;28;20218;-39
2022/05/08 04:55:59;;;;;;;8.33;5.50;;;11.70;99.90;;;;;;5055984;28;20512;-39
2022/05/08 04:58:29;;;;;;;9.07;6.20;;;11.70;99.90;;;;;;5056393;28;20237;-45
2022/05/08 05:00:57;;;;;;;11.83;6.03;;;11.70;99.90;;;;;;5057429;28;20203;-44
2022/05/08 05:03:24;;;;;;;12.97;6.53;;;11.70;99.90;;;;;;5058728;28;20221;-45
2022/05/08 05:05:50;;;;;;;13.07;6.47;;;11.80;99.90;;;;;;5058682;28;20189;-45
2022/05/08 05:08:15;;;;;;;12.53;7.13;;;11.80;99.90;;;;;;5058317;28;20291;-44
2022/05/08 05:10:41;;;;;;;12.13;8.50;;;11.80;99.90;;;;;;5061471;28;20183;-46
2022/05/08 05:13:06;;;;;;;12.77;7.87;;;11.80;99.90;;;;;;5061670;28;20208;-45
2022/05/08 05:15:32;;;;;;;17.57;8.83;;;11.80;99.90;;;;;;5061381;28;20312;-45
2022/05/08 05:18:01;;;;;;;12.77;8.13;;;11.80;99.90;;;;;;5061571;28;20263;-45
2022/05/08 05:20:27;;;;;;;14.00;9.93;;;11.70;99.90;;;;;;5061614;28;20183;-45
2022/05/08 05:22:52;;;;;;;13.83;9.70;;;11.80;99.90;;;;;;5062338;28;20237;-46
2022/05/08 05:25:19;;;;;;;13.73;9.53;;;11.70;99.90;;;;;;5061871;28;20242;-44
2022/05/08 05:27:45;;;;;;;14.90;10.17;;;11.70;99.90;;;;;;5062543;28;20290;-45
2022/05/08 05:30:11;;;;;;;12.97;9.57;;;11.70;99.90;;;;;;5062518;28;20627;-45
2022/05/08 05:32:38;;;;;;;16.07;9.67;;;11.70;99.90;;;;;;5062221;28;20564;-46
2022/05/08 05:35:04;;;;;;;12.23;9.03;;;11.80;99.90;;;;;;5060950;28;20183;-44
2022/05/08 05:37:29;;;;;;;15.77;10.10;;;11.70;99.90;;;;;;5061858;28;20198;-43
2022/05/08 05:39:55;;;;;;;15.73;9.70;;;11.70;99.90;;;;;;5061237;28;20226;-42
2022/05/08 05:42:20;;;;;;;16.80;9.53;;;11.70;99.90;;;;;;5056270;28;20233;-44
2022/05/08 05:44:46;;;;;;;11.97;8.87;;;11.70;99.90;;;;;;5055481;28;20690;-45
2022/05/08 05:49:56;;;;;;;13.33;9.10;;;11.60;99.90;;;;;;5056627;28;20210;-45
2022/05/08 05:52:22;;;;;;;15.93;8.83;;;11.60;99.90;;;;;;5060161;28;20187;-45
2022/05/08 05:54:48;;;;;;;15.70;8.87;;;11.60;99.90;;;;;;5062838;28;20214;-45
2022/05/08 05:57:14;;;;;;;13.97;8.20;;;11.60;99.90;;;;;;5060238;28;20196;-45
2022/05/08 05:59:39;;;;;;;13.63;9.60;;;11.60;99.90;;;;;;5063451;28;20179;-43
2022/05/08 06:02:05;;;;;;;17.43;8.90;;;11.50;99.90;;;;;;5055986;28;20177;-44
2022/05/08 06:04:30;;;;;;;10.53;8.43;;;11.50;99.90;;;;;;5054666;28;20197;-44
2022/05/08 06:06:56;;;;;;;11.57;6.33;;;11.50;99.90;;;;;;5054536;28;20202;-44
2022/05/08 06:09:21;;;;;;;12.57;8.17;;;11.60;99.90;;;;;;5054550;28;20183;-42
2022/05/08 06:11:47;;;;;;;15.33;8.13;;;11.60;99.90;;;;;;5054529;28;20180;-44
2022/05/08 06:14:13;;;;;;;13.13;7.80;;;11.60;99.90;;;;;;5054545;28;20216;-45
2022/05/08 06:16:39;;;;;;;14.30;7.37;;;11.60;99.90;;;;;;5054350;28;20203;-44
2022/05/08 06:19:05;;;;;;;11.77;7.43;;;11.70;99.90;;;;;;5054417;28;20275;-45
2022/05/08 06:21:32;;;;;;;11.30;7.27;;;11.80;99.90;;;;;;5054631;28;20196;-45
2022/05/08 06:23:57;;;;;;;15.27;7.27;;;11.80;99.90;;;;;;5054684;28;20180;-43
2022/05/08 06:26:23;;;;;;;10.63;6.67;;;11.90;99.90;;;;;;5054561;28;20543;-44
2022/05/08 06:28:49;;;;;;;16.60;7.20;;;12.00;99.90;;;;;;5054482;28;20191;-44
2022/05/08 06:31:17;;;;;;;10.00;6.40;;;12.00;99.90;;;;;;5054290;28;20176;-45
2022/05/08 06:33:43;;;;;;;12.10;6.37;;;12.10;99.90;;;;;;5054885;28;20218;-45
2022/05/08 06:36:10;;;;;;;13.93;6.90;;;12.10;99.90;;;;;;5054879;28;20200;-44
2022/05/08 06:38:36;;;;;;;11.47;6.50;;;12.10;99.90;;;;;;5056477;28;20212;-46
2022/05/08 06:41:01;;;;;;;13.20;6.87;;;12.10;99.90;;;;;;5054259;28;20188;-45
2022/05/08 06:43:27;;;;;;;12.37;6.87;;;12.10;99.90;;;;;;5055956;28;20635;-43
2022/05/08 06:45:52;;;;;;;10.47;6.03;;;12.10;99.90;;;;;;5056341;28;20191;-45
2022/05/08 06:48:18;;;;;;;10.60;6.23;;;12.20;99.90;;;;;;5058872;28;20199;-43
2022/05/08 06:50:44;;;;;;;12.87;6.20;;;12.30;99.90;;;;;;5057975;28;20188;-46
2022/05/08 06:53:10;;;;;;;10.40;6.83;;;12.30;99.90;;;;;;5057655;28;20222;-44
2022/05/08 06:55:35;;;;;;;9.80;6.10;;;12.30;99.90;;;;;;5057688;28;20597;-46
2022/05/08 06:58:02;;;;;;;12.07;7.30;;;12.40;99.90;;;;;;5055796;28;20195;-40
2022/05/08 07:03:12;;;;;;;12.33;6.03;;;12.40;99.90;;;;;;5053627;28;20516;-38
2022/05/08 07:05:42;;;;;;;12.53;5.87;;;12.40;99.90;;;;;;5053850;28;20266;-40
2022/05/08 07:08:08;;;;;;;9.93;6.13;;;12.40;99.90;;;;;;5052253;28;20210;-40
2022/05/08 07:10:34;;;;;;;15.10;6.70;;;12.30;99.90;;;;;;5053527;28;20590;-42
2022/05/08 07:12:59;;;;;;;13.10;6.40;;;12.30;99.90;;;;;;5053315;28;20207;-42
2022/05/08 07:15:25;;;;;;;11.70;6.73;;;12.30;99.90;;;;;;5053351;28;20233;-39
2022/05/08 07:17:50;;;;;;;10.13;6.37;;;12.40;99.90;;;;;;5053322;28;20200;-42
2022/05/08 07:20:16;;;;;;;12.73;6.87;;;12.40;99.90;;;;;;5053542;28;20314;-39
2022/05/08 07:22:41;;;;;;;15.43;6.90;;;12.30;99.90;;;;;;5053312;28;20195;-41
2022/05/08 07:25:08;;;;;;;10.47;6.47;;;12.30;99.90;;;;;;5053281;28;20189;-39
2022/05/08 07:27:36;;;;;;;11.30;7.10;;;12.20;99.90;;;;;;5051862;28;20549;-40
2022/05/08 07:30:05;;;;;;;11.77;6.77;;;12.20;99.90;;;;;;5053474;28;20194;-39
2022/05/08 07:32:30;;;;;;;16.00;6.37;;;12.40;99.90;;;;;;5053379;28;20180;-41
2022/05/08 07:37:43;;;;;;;10.97;6.17;;;12.50;99.90;;;;;;5053087;28;20567;-41
2022/05/08 07:40:10;;;;;;;11.30;6.57;;;12.60;99.90;;;;;;5057535;28;20231;-40
2022/05/08 07:42:36;;;;;;;12.13;5.77;;;12.60;99.90;;;;;;5060144;28;20176;-42
2022/05/08 07:45:03;;;;;;;10.70;5.90;;;12.60;99.90;;;;;;5060511;28;20191;-39
2022/05/08 07:47:28;;;;;;;11.20;5.70;;;12.50;99.90;;;;;;5059698;28;20203;-40
2022/05/08 07:49:54;;;;;;;13.90;6.73;;;12.50;99.90;;;;;;5059895;28;20188;-38
2022/05/08 07:52:19;;;;;;;13.60;6.03;;;12.50;99.90;;;;;;5059583;28;20187;-41
2022/05/08 07:54:45;;;;;;;11.17;5.30;;;12.40;99.90;;;;;;5060312;28;20188;-39
2022/05/08 07:57:11;;;;;;;12.23;5.70;;;12.40;99.90;;;;;;5059646;28;20204;-39
2022/05/08 07:59:36;;;;;;;10.97;4.90;;;12.40;99.90;;;;;;5059842;28;20177;-39
2022/05/08 08:02:03;;;;;;;13.20;5.27;;;12.30;99.90;;;;;;5059630;28;20184;-41
2022/05/08 08:04:29;;;;;;;14.30;6.00;;;12.30;99.90;;;;;;5059651;28;20185;-40
2022/05/08 08:06:54;;;;;;;12.43;5.90;;;12.30;99.90;;;;;;5059851;28;20196;-39
2022/05/08 08:09:20;;;;;;;13.53;5.67;;;12.20;99.90;;;;;;5059852;28;20334;-38
2022/05/08 08:11:46;;;;;;;10.70;4.90;;;12.30;99.90;;;;;;5059839;28;20191;-38
2022/05/08 08:14:12;;;;;;;11.70;5.30;;;12.20;99.90;;;;;;5059569;28;20579;-41
2022/05/08 08:16:39;;;;;;;11.10;5.13;;;12.20;99.90;;;;;;5059705;28;20179;-40
2022/05/08 08:19:05;;;;;;;10.03;5.10;;;12.20;99.90;;;;;;5059458;28;20188;-39
2022/05/08 08:21:31;;;;;;;15.13;5.33;;;12.30;99.90;;;;;;5058246;28;20271;-40
2022/05/08 08:23:57;;;;;;;12.67;6.00;;;12.20;99.90;;;;;;5059461;28;20179;-38
2022/05/08 08:26:23;;;;;;;11.03;5.43;;;12.30;99.90;;;;;;5059467;28;20180;-39
2022/05/08 08:28:48;;;;;;;10.17;4.60;;;12.30;99.90;;;;;;5059715;28;20255;-40
2022/05/08 08:31:14;;;;;;;14.93;5.23;;;12.30;99.90;;;;;;5059490;28;20206;-41
2022/05/08 08:33:41;;;;;;;12.27;4.77;;;12.30;99.90;;;;;;5059457;28;20204;-39
2022/05/08 08:36:07;;;;;;;10.67;5.20;;;12.40;99.90;;;;;;5059653;28;20184;-38
2022/05/08 08:38:34;;;;;;;12.40;5.70;;;12.40;99.90;;;;;;5059713;28;20298;-42
2022/05/08 08:41:04;;;;;;;15.67;6.10;;;12.50;99.90;;;;;;5058045;28;20186;-41
2022/05/08 08:47:42;;;;;;;18.57;6.97;;;12.50;99.90;;;;;;5059256;28;20202;-40
2022/05/08 08:49:08;;;;;;;13.40;6.63;;;12.50;99.90;;;;;;5059489;28;20204;-39
2022/05/08 08:51:36;;;;;;;12.70;6.60;;;12.60;99.90;;;;;;5056100;28;20673;-40
2022/05/08 08:54:03;;;;;;;13.20;6.40;;;12.70;99.90;;;;;;5056129;28;20243;-40
2022/05/08 08:56:29;;;;;;;16.03;6.37;;;12.80;99.90;;;;;;5055858;28;20186;-42
2022/05/08 08:58:54;;;;;;;14.77;6.67;;;12.90;99.90;;;;;;5056213;28;20233;-39
2022/05/08 09:01:20;;;;;;;15.00;6.33;;;13.00;99.90;;;;;;5055836;28;20189;-41
2022/05/08 09:03:46;;;;;;;15.17;6.73;;;13.10;99.90;;;;;;5054900;28;20184;-40
2022/05/08 09:06:11;;;;;;;15.07;6.53;;;13.30;99.90;;;;;;5055844;28;20208;-41
2022/05/08 09:08:37;;;;;;;16.87;5.73;;;13.40;99.90;;;;;;5055947;28;20337;-41
2022/05/08 09:11:03;;;;;;;19.50;6.63;;;13.50;99.90;;;;;;5055729;28;20184;-40
2022/05/08 09:13:29;;;;;;;16.13;6.23;;;13.70;99.90;;;;;;5055926;28;20208;-39
2022/05/08 09:16:02;;;;;;;17.13;6.00;;;13.80;99.90;;;;;;5055818;28;20188;-42
2022/05/08 09:18:28;;;;;;;15.57;6.33;;;14.10;99.90;;;;;;5055448;28;20196;-40
2022/05/08 09:20:57;;;;;;;15.43;6.13;;;14.40;99.90;;;;;;5055751;28;20276;-40
2022/05/08 09:23:23;;;;;;;15.90;5.93;;;14.60;99.90;;;;;;5055339;28;20279;-41
2022/05/08 09:26:02;;;;;;;14.23;5.87;;;14.60;99.90;;;;;;5055516;28;20176;-39
2022/05/08 09:28:30;;;;;;;12.80;5.33;;;14.80;99.90;;;;;;5055604;28;20231;-39
2022/05/08 09:31:04;;;;;;;16.53;6.57;;;15.00;99.90;;;;;;5055367;28;20180;-40
2022/05/08 09:33:39;;;;;;;14.63;5.17;;;15.10;99.90;;;;;;5055780;28;20188;-39
2022/05/08 09:36:22;;;;;;;15.60;5.93;;;15.10;99.90;;;;;;5055197;28;20164;-38
2022/05/08 09:38:55;;;;;;;13.80;5.20;;;15.20;99.90;;;;;;5055169;28;20204;-41
2022/05/08 09:41:23;;;;;;;12.30;5.37;;;15.20;99.90;;;;;;5055055;28;20190;-40
2022/05/08 09:43:49;;;;;;;12.07;5.17;;;15.30;99.90;;;;;;5055298;28;20188;-38
2022/05/08 09:46:15;;;;;;;13.27;5.90;;;15.50;99.90;;;;;;5054993;28;20182;-41
2022/05/08 09:48:41;;;;;;;15.37;6.40;;;15.50;99.90;;;;;;5055184;28;20208;-40
2022/05/08 09:51:12;;;;;;;15.50;5.57;;;15.70;99.90;;;;;;5054986;28;20180;-41
2022/05/08 09:53:39;;;;;;;12.20;4.63;;;15.80;99.90;;;;;;5055132;28;20258;-42
2022/05/08 09:56:07;;;;;;;13.47;5.37;;;15.70;99.90;;;;;;5055018;28;20184;-39
2022/05/08 09:58:33;;;;;;;15.80;4.87;;;15.70;99.90;;;;;;5054797;28;20664;-41
2022/05/08 10:01:00;;;;;;;12.67;4.53;;;15.70;99.90;;;;;;5055044;28;20176;-40
2022/05/08 10:03:27;;;;;;;14.20;4.70;;;15.70;99.90;;;;;;5054312;28;20238;-39
2022/05/08 10:05:53;;;;;;;10.37;4.50;;;15.80;99.90;;;;;;5054891;28;20184;-39
2022/05/08 10:08:26;;;;;;;11.70;4.27;;;15.90;99.90;;;;;;5054873;28;20204;-39
2022/05/08 10:14:04;;;;;;;12.53;4.17;;;15.80;99.90;;;;;;5054781;28;20203;-40
2022/05/08 10:16:46;;;;;;;12.47;4.80;;;15.80;99.90;;;;;;5054486;28;20605;-40
2022/05/08 10:19:17;;;;;;;13.57;4.90;;;15.90;99.90;;;;;;5053089;28;20549;-39
2022/05/08 10:22:05;;;;;;;10.77;3.70;;;15.90;99.90;;;;;;5054433;28;20267;-40
2022/05/08 10:24:47;;;;;;;21.67;4.50;;;15.90;99.90;;;;;;5054569;28;20559;-42
2022/05/08 10:27:33;;;;;;;13.27;4.53;;;15.90;99.90;;;;;;5054255;28;20207;-42
2022/05/08 10:29:58;;;;;;;13.07;4.90;;;16.00;99.90;;;;;;5054718;28;20171;-40
2022/05/08 10:32:32;;;;;;;12.57;3.67;;;16.10;99.90;;;;;;5054411;28;20184;-40
2022/05/08 10:35:14;;;;;;;11.60;3.77;;;16.10;99.90;;;;;;5054064;28;20191;-40
2022/05/08 10:37:42;;;;;;;8.83;3.33;;;16.30;99.90;;;;;;5053818;28;20271;-41
2022/05/08 10:40:32;;;;;;;10.27;3.13;;;16.40;99.90;;;;;;5054106;28;20177;-40
2022/05/08 10:42:59;;;;;;;9.70;3.20;;;16.50;99.90;;;;;;5051251;28;20279;-40
2022/05/08 10:45:33;;;;;;;9.90;3.37;;;16.60;99.90;;;;;;5054314;28;20212;-38
2022/05/08 10:48:07;;;;;;;10.93;3.40;;;16.70;99.90;;;;;;5053773;28;20202;-38
2022/05/08 10:50:33;;;;;;;9.77;3.50;;;16.80;99.90;;;;;;5053835;28;20207;-38
2022/05/08 10:52:58;;;;;;;11.30;3.57;;;16.80;99.90;;;;;;5053728;28;20242;-41
2022/05/08 10:55:26;;;;;;;7.57;3.07;;;16.80;99.90;;;;;;5053720;28;20207;-40
2022/05/08 10:57:53;;;;;;;7.97;3.23;;;16.80;99.90;;;;;;5053691;28;20200;-37
2022/05/08 11:00:19;;;;;;;8.80;3.63;;;16.80;99.90;;;;;;5053970;28;20640;-46
2022/05/08 11:02:59;;;;;;;8.37;4.17;;;16.90;99.90;;;;;;5054602;28;20173;-39
2022/05/08 11:05:29;;;;;;;10.03;3.63;;;16.90;99.90;;;;;;5055002;28;20678;-41
2022/05/08 11:08:00;;;;;;;13.60;4.67;;;17.00;99.90;;;;;;5054435;28;20223;-38
2022/05/08 11:10:29;;;;;;;7.87;3.83;;;17.10;99.90;;;;;;5054089;28;20180;-40
2022/05/08 11:13:03;;;;;;;13.33;4.23;;;17.10;99.90;;;;;;5054659;28;20200;-40
2022/05/08 11:15:32;;;;;;;7.53;3.80;;;17.20;99.90;;;;;;5053203;28;20179;-40
2022/05/08 11:18:15;;;;;;;9.90;3.40;;;17.30;99.90;;;;;;5054736;28;20232;-44
2022/05/08 11:20:50;;;;;;;9.97;3.97;;;17.30;99.90;;;;;;5054470;28;20165;-42
2022/05/08 11:23:21;;;;;;;9.77;3.67;;;17.30;99.90;;;;;;5055049;28;20536;-46
2022/05/08 11:25:49;;;;;;;7.37;2.60;;;17.40;99.90;;;;;;5053991;28;20647;-41
2022/05/08 11:28:17;;;;;;;10.00;3.17;;;17.40;99.90;;;;;;5053835;28;20196;-45
2022/05/08 11:30:46;;;;;;;9.83;3.47;;;17.50;99.90;;;;;;5054943;28;20264;-47
2022/05/08 11:36:08;;;;;;;4.43;2.17;;;17.60;99.90;;;;;;5053868;28;20233;-41
2022/05/08 11:38:45;;;;;;;9.17;2.40;;;17.70;99.90;;;;;;5053224;28;20214;-38
2022/05/08 11:41:15;;;;;;;6.53;2.40;;;17.70;99.90;;;;;;5053865;28;20164;-47
2022/05/08 11:43:41;;;;;;;5.23;2.23;;;17.90;99.90;;;;;;5055432;28;20535;-46
2022/05/08 11:46:08;;;;;;;6.43;1.93;;;18.00;99.90;;;;;;5055604;28;20198;-46
2022/05/08 11:48:37;;;;;;;7.17;2.37;;;18.00;99.90;;;;;;5054710;28;20204;-47
2022/05/08 11:51:04;;;;;;;4.27;1.90;;;18.10;99.90;;;;;;5055294;28;20208;-46
2022/05/08 11:53:42;;;;;;;9.50;2.27;;;18.10;99.90;;;;;;5055972;28;20203;-46
2022/05/08 11:56:24;;;;;;;8.17;2.47;;;18.10;99.90;;;;;;5055716;28;20183;-47
2022/05/08 11:58:49;;;;;;;7.43;1.93;;;18.20;99.90;;;;;;5056363;28;20635;-47
2022/05/08 12:01:28;;;;;;;8.87;2.67;;;18.30;99.90;;;;;;5055932;28;20207;-47
2022/05/08 12:03:55;;;;;;;6.73;1.77;;;18.40;99.90;;;;;;5055777;28;20168;-46
2022/05/08 12:06:21;;;;;;;4.37;1.87;;;18.50;99.90;;;;;;5056452;28;20321;-45
2022/05/08 12:08:47;;;;;;;6.43;2.57;;;18.50;99.90;;;;;;5056195;28;20537;-47
2022/05/08 12:11:26;;;;;;;9.97;3.00;;;18.50;99.90;;;;;;5055688;28;20184;-47
2022/05/08 12:14:05;;;;;;;7.03;2.53;;;18.60;99.90;;;;;;5056138;28;20631;-46
2022/05/08 12:16:32;;;;;;;7.10;3.10;;;18.70;99.90;;;;;;5056221;28;20171;-47
2022/05/08 12:19:18;;;;;;;7.43;2.40;;;18.70;99.90;;;;;;5055885;28;20177;-48
2022/05/08 12:21:46;;;;;;;7.23;2.50;;;18.70;99.90;;;;;;5056583;28;20186;-46
2022/05/08 12:24:13;;;;;;;8.77;2.47;;;18.80;99.90;;;;;;5056095;28;20710;-47
2022/05/08 12:26:39;;;;;;;12.40;2.67;;;18.90;99.90;;;;;;5058744;28;20180;-45
2022/05/08 12:29:18;;;;;;;7.07;2.57;;;19.00;99.90;;;;;;5059990;28;20177;-45
2022/05/08 12:31:44;;;;;;;8.27;2.67;;;19.10;99.90;;;;;;5059264;28;20173;-46
2022/05/08 12:34:11;;;;;;;7.03;2.33;;;19.10;99.90;;;;;;5059935;28;20208;-46
2022/05/08 12:36:40;;;;;;;6.20;2.70;;;19.20;99.90;;;;;;5060070;28;20204;-47
2022/05/08 12:39:08;;;;;;;6.50;2.20;;;19.20;99.90;;;;;;5059678;28;20319;-47
2022/05/08 12:41:33;;;;;;;8.03;2.67;;;19.10;99.90;;;;;;5059436;28;20172;-47
2022/05/08 12:44:02;;;;;;;5.40;2.73;;;19.00;99.90;;;;;;5058949;28;20181;-46
2022/05/08 12:46:28;;;;;;;6.97;2.23;;;19.00;99.90;;;;;;5058829;28;20210;-46
2022/05/08 12:49:00;;;;;;;9.37;3.00;;;19.00;99.90;;;;;;5058752;28;20180;-45
2022/05/08 12:51:26;;;;;;;9.93;2.53;;;19.10;99.90;;;;;;5058992;28;20157;-46
2022/05/08 12:53:52;;;;;;;5.80;2.20;;;19.20;99.90;;;;;;5058495;28;20204;-46
2022/05/08 12:56:19;;;;;;;6.77;2.37;;;19.30;99.90;;;;;;5058261;28;20156;-46
2022/05/08 13:01:29;;;;;;;6.17;2.20;;;19.20;99.90;;;;;;5058573;28;20168;-47
2022/05/08 13:03:55;;;;;;;7.70;3.57;;;19.20;99.90;;;;;;5058048;28;20168;-48
2022/05/08 13:06:20;;;;;;;8.30;2.80;;;19.20;99.90;;;;;;5058267;28;20664;-46
2022/05/08 13:08:46;;;;;;;9.63;2.80;;;19.20;99.90;;;;;;5058272;28;20183;-46